createdAt,value
2019-02-24T00:02:22.739Z,102937.00
2019-02-24T00:04:56.039Z,102942.37
2019-02-24T00:07:29.357Z,102935.26
2019-02-24T00:10:02.810Z,102932.51
2019-02-24T00:12:36.138Z,102931.69
2019-02-24T00:15:09.488Z,102932.82
2019-02-24T00:17:42.883Z,102938.05
2019-02-24T00:20:16.177Z,102931.61
2019-02-24T00:22:49.478Z,102925.02
2019-02-24T00:25:22.783Z,102924.87
2019-02-24T00:27:56.071Z,102932.36
2019-02-24T00:30:29.358Z,102929.36
2019-02-24T00:33:02.813Z,102927.09
2019-02-24T00:35:36.145Z,102931.27
2019-02-24T00:38:09.437Z,102937.78
2019-02-24T00:40:42.744Z,102932.35
2019-02-24T00:43:16.036Z,102930.31
2019-02-24T00:45:49.326Z,102929.67
2019-02-24T00:48:22.633Z,102915.77
2019-02-24T00:50:55.918Z,102915.66
2019-02-24T00:53:29.222Z,102913.47
2019-02-24T00:56:02.519Z,102916.36
2019-02-24T00:58:35.818Z,102920.93
2019-02-24T01:01:09.115Z,102915.97
2019-02-24T01:03:42.418Z,102920.90
2019-02-24T01:06:15.717Z,102912.44
2019-02-24T01:08:49.013Z,102906.92
2019-02-24T01:11:22.304Z,102915.59
2019-02-24T01:13:55.608Z,102908.55
2019-02-24T01:16:28.902Z,102908.85
2019-02-24T01:19:02.208Z,102918.66
2019-02-24T01:21:35.528Z,102917.56
2019-02-24T01:24:08.838Z,102922.48
2019-02-24T01:26:42.117Z,102918.50
2019-02-24T01:29:15.434Z,102919.04
2019-02-24T01:31:48.721Z,102913.98
2019-02-24T01:34:22.017Z,102917.55
2019-02-24T01:36:55.318Z,102908.56
2019-02-24T01:39:28.618Z,102912.08
2019-02-24T01:42:01.914Z,102908.42
2019-02-24T01:44:35.217Z,102909.86
2019-02-24T01:47:08.514Z,102904.02
2019-02-24T01:49:41.867Z,102905.28
2019-02-24T01:52:15.150Z,102901.18
2019-02-24T01:54:48.449Z,102900.00
2019-02-24T01:57:21.731Z,102893.66
2019-02-24T01:59:55.017Z,102894.35
2019-02-24T02:02:28.301Z,102895.16
2019-02-24T02:05:01.591Z,102903.14
2019-02-24T02:07:34.885Z,102904.11
2019-02-24T02:10:08.257Z,102901.23
2019-02-24T02:12:41.538Z,102904.65
2019-02-24T02:15:14.912Z,102905.27
2019-02-24T02:17:48.198Z,102901.98
2019-02-24T02:20:21.495Z,102902.55
2019-02-24T02:22:54.780Z,102902.88
2019-02-24T02:25:28.157Z,102893.28
2019-02-24T02:28:01.456Z,102890.11
2019-02-24T02:30:34.768Z,102886.92
2019-02-24T02:33:08.072Z,102889.20
2019-02-24T02:35:41.405Z,102890.02
2019-02-24T02:38:14.690Z,102888.33
2019-02-24T02:40:48.002Z,102890.36
2019-02-24T02:43:21.288Z,102891.84
2019-02-24T02:45:54.617Z,102886.80
2019-02-24T02:48:27.900Z,102883.71
2019-02-24T02:51:01.206Z,102885.61
2019-02-24T02:53:34.483Z,102883.45
2019-02-24T02:56:07.868Z,102886.98
2019-02-24T02:58:41.148Z,102882.69
2019-02-24T03:01:14.461Z,102881.70
2019-02-24T03:03:47.735Z,102883.89
2019-02-24T03:06:22.676Z,102888.05
2019-02-24T03:08:55.979Z,102876.06
2019-02-24T03:11:29.246Z,102886.63
2019-02-24T03:14:02.556Z,102885.03
2019-02-24T03:16:35.843Z,102877.89
2019-02-24T03:19:09.130Z,102876.23
2019-02-24T03:21:42.430Z,102870.20
2019-02-24T03:24:15.730Z,102871.77
2019-02-24T03:26:49.031Z,102877.13
2019-02-24T03:29:22.321Z,102869.00
2019-02-24T03:31:55.625Z,102870.09
2019-02-24T03:34:28.911Z,102873.96
2019-02-24T03:37:02.217Z,102874.69
2019-02-24T03:39:35.512Z,102876.36
2019-02-24T03:42:08.784Z,102880.53
2019-02-24T03:44:42.086Z,102877.16
2019-02-24T03:47:15.383Z,102883.17
2019-02-24T03:49:48.682Z,102888.95
2019-02-24T03:52:21.947Z,102887.54
2019-02-24T03:54:55.266Z,102893.59
2019-02-24T03:57:28.533Z,102886.25
2019-02-24T04:00:01.902Z,102886.55
2019-02-24T04:02:35.190Z,102884.56
2019-02-24T04:05:08.493Z,102882.96
2019-02-24T04:07:41.790Z,102886.53
2019-02-24T04:10:15.092Z,102889.92
2019-02-24T04:12:48.394Z,102895.17
2019-02-24T04:15:21.759Z,102887.21
2019-02-24T04:17:55.032Z,102882.59
2019-02-24T04:20:28.329Z,102886.87
2019-02-24T04:23:01.632Z,102884.77
2019-02-24T04:25:34.937Z,102881.40
2019-02-24T04:28:08.234Z,102873.47
2019-02-24T04:30:41.595Z,102875.55
2019-02-24T04:33:14.878Z,102874.69
2019-02-24T04:35:48.182Z,102884.48
2019-02-24T04:38:21.513Z,102890.44
2019-02-24T04:40:54.775Z,102877.74
2019-02-24T04:43:28.058Z,102874.56
2019-02-24T04:46:01.350Z,102877.95
2019-02-24T04:48:34.633Z,102887.75
2019-02-24T04:51:07.939Z,102880.21
2019-02-24T04:53:41.215Z,102889.45
2019-02-24T04:56:14.526Z,102887.16
2019-02-24T04:58:47.832Z,102883.30
2019-02-24T05:01:21.125Z,102880.60
2019-02-24T05:03:54.411Z,102880.31
2019-02-24T05:06:27.797Z,102879.41
2019-02-24T05:09:01.071Z,102882.29
2019-02-24T05:11:34.375Z,102887.95
2019-02-24T05:14:07.650Z,102886.73
2019-02-24T05:16:40.954Z,102880.87
2019-02-24T05:19:14.262Z,102879.84
2019-02-24T05:21:47.567Z,102885.69
2019-02-24T05:24:20.847Z,102884.32
2019-02-24T05:26:54.159Z,102885.88
2019-02-24T05:29:27.443Z,102891.05
2019-02-24T05:32:00.770Z,102885.98
2019-02-24T05:34:34.046Z,102894.37
2019-02-24T05:37:07.343Z,102891.73
2019-02-24T05:39:40.630Z,102897.71
2019-02-24T05:42:15.578Z,102905.39
2019-02-24T05:44:48.897Z,102901.63
2019-02-24T05:47:22.165Z,102901.91
2019-02-24T05:49:55.462Z,102913.55
2019-02-24T05:52:28.756Z,102916.12
2019-02-24T05:55:02.047Z,102915.20
2019-02-24T05:57:35.378Z,102911.69
2019-02-24T06:00:08.655Z,102910.63
2019-02-24T06:02:41.958Z,102913.45
2019-02-24T06:05:15.260Z,102914.02
2019-02-24T06:07:48.560Z,102916.78
2019-02-24T06:10:21.829Z,102921.73
2019-02-24T06:12:55.133Z,102924.98
2019-02-24T06:15:28.431Z,102932.36
2019-02-24T06:18:01.730Z,102926.70
2019-02-24T06:20:35.018Z,102926.84
2019-02-24T06:23:08.308Z,102921.93
2019-02-24T06:25:41.582Z,102929.66
2019-02-24T06:28:14.895Z,102926.69
2019-02-24T06:30:48.179Z,102927.28
2019-02-24T06:33:21.498Z,102926.51
2019-02-24T06:35:54.809Z,102924.93
2019-02-24T06:38:28.111Z,102931.55
2019-02-24T06:41:01.406Z,102932.80
2019-02-24T06:43:34.734Z,102931.99
2019-02-24T06:46:07.998Z,102932.08
2019-02-24T06:48:41.271Z,102937.84
2019-02-24T06:51:15.042Z,102949.48
2019-02-24T06:53:48.351Z,102946.38
2019-02-24T06:56:21.675Z,102944.23
2019-02-24T06:58:54.963Z,102947.70
2019-02-24T07:01:28.273Z,102945.86
2019-02-24T07:04:01.554Z,102939.41
2019-02-24T07:06:34.843Z,102943.02
2019-02-24T07:09:08.194Z,102944.45
2019-02-24T07:11:41.486Z,102951.12
2019-02-24T07:14:14.775Z,102953.91
2019-02-24T07:16:48.089Z,102946.48
2019-02-24T07:19:21.388Z,102949.97
2019-02-24T07:21:54.722Z,102944.62
2019-02-24T07:24:27.992Z,102936.89
2019-02-24T07:27:02.031Z,102939.26
2019-02-24T07:29:35.342Z,102938.95
2019-02-24T07:32:08.678Z,102936.19
2019-02-24T07:34:41.965Z,102932.75
2019-02-24T07:37:15.258Z,102941.34
2019-02-24T07:39:48.574Z,102936.37
2019-02-24T07:42:21.889Z,102943.04
2019-02-24T07:44:55.167Z,102942.70
2019-02-24T07:47:28.478Z,102947.80
2019-02-24T07:50:01.832Z,102942.59
2019-02-24T07:52:35.145Z,102943.47
2019-02-24T07:55:08.499Z,102941.50
2019-02-24T07:57:41.781Z,102936.84
2019-02-24T08:00:15.064Z,102937.12
2019-02-24T08:02:48.363Z,102936.25
2019-02-24T08:05:21.666Z,102939.16
2019-02-24T08:07:54.966Z,102942.66
2019-02-24T08:10:28.247Z,102947.28
2019-02-24T08:13:01.553Z,102942.70
2019-02-24T08:15:34.834Z,102940.48
2019-02-24T08:18:08.130Z,102945.55
2019-02-24T08:20:41.401Z,102939.98
2019-02-24T08:23:14.703Z,102937.51
2019-02-24T08:25:47.979Z,102938.48
2019-02-24T08:28:21.289Z,102934.84
2019-02-24T08:30:54.574Z,102937.42
2019-02-24T08:33:27.889Z,102933.54
2019-02-24T08:36:01.182Z,102932.19
2019-02-24T08:38:34.488Z,102933.06
2019-02-24T08:41:07.763Z,102931.60
2019-02-24T08:43:41.077Z,102927.31
2019-02-24T08:46:14.539Z,102928.83
2019-02-24T08:48:47.868Z,102939.09
2019-02-24T08:51:23.238Z,102937.18
2019-02-24T08:53:56.222Z,102937.65
2019-02-24T08:56:29.538Z,102942.91
2019-02-24T08:59:02.812Z,102936.69
2019-02-24T09:01:36.215Z,102942.09
2019-02-24T09:04:09.493Z,102933.09
2019-02-24T09:06:42.800Z,102936.53
2019-02-24T09:09:16.107Z,102936.59
2019-02-24T09:11:49.425Z,102939.53
2019-02-24T09:14:22.703Z,102938.92
2019-02-24T09:16:55.993Z,102934.63
2019-02-24T09:19:29.288Z,102939.27
2019-02-24T09:22:02.605Z,102941.06
2019-02-24T09:24:35.883Z,102942.02
2019-02-24T09:27:09.198Z,102946.42
2019-02-24T09:29:42.561Z,102943.27
2019-02-24T09:32:15.940Z,102944.25
2019-02-24T09:34:49.213Z,102949.17
2019-02-24T09:37:22.498Z,102946.97
2019-02-24T09:39:55.784Z,102954.39
2019-02-24T09:42:29.093Z,102947.12
2019-02-24T09:45:02.394Z,102951.67
2019-02-24T09:47:35.677Z,102950.21
2019-02-24T09:50:09.896Z,102953.28
2019-02-24T09:52:43.205Z,102954.25
2019-02-24T09:55:16.527Z,102953.38
2019-02-24T09:57:49.835Z,102955.91
2019-02-24T10:00:23.108Z,102958.54
2019-02-24T10:02:57.581Z,102959.48
2019-02-24T10:05:31.167Z,102953.39
2019-02-24T10:08:04.471Z,102956.42
2019-02-24T10:10:37.796Z,102952.13
2019-02-24T10:13:11.146Z,102957.80
2019-02-24T10:15:44.430Z,102958.07
2019-02-24T10:18:17.735Z,102954.30
2019-02-24T10:20:51.028Z,102951.87
2019-02-24T10:23:24.303Z,102952.00
2019-02-24T10:25:57.583Z,102947.52
2019-02-24T10:28:30.883Z,102942.45
2019-02-24T10:31:04.182Z,102950.81
2019-02-24T10:33:37.498Z,102953.11
2019-02-24T10:36:10.785Z,102952.41
2019-02-24T10:38:44.123Z,102952.55
2019-02-24T10:41:17.387Z,102952.71
2019-02-24T10:43:50.745Z,102951.23
2019-02-24T10:46:24.147Z,102949.11
2019-02-24T10:49:03.432Z,102940.39
2019-02-24T10:51:32.481Z,102931.39
2019-02-24T10:54:05.859Z,102931.22
2019-02-24T10:56:39.145Z,102934.34
2019-02-24T10:59:12.536Z,102933.78
2019-02-24T11:01:45.815Z,102930.04
2019-02-24T11:04:19.115Z,102929.33
2019-02-24T11:06:52.435Z,102924.20
2019-02-24T11:09:25.756Z,102923.23
2019-02-24T11:11:59.066Z,102924.95
2019-02-24T11:14:32.360Z,102914.34
2019-02-24T11:17:05.626Z,102911.86
2019-02-24T11:19:38.925Z,102915.99
2019-02-24T11:22:12.243Z,102915.36
2019-02-24T11:24:45.516Z,102904.16
2019-02-24T11:27:18.802Z,102901.25
2019-02-24T11:29:52.090Z,102905.03
2019-02-24T11:32:25.387Z,102906.41
2019-02-24T11:34:58.689Z,102898.40
2019-02-24T11:37:32.498Z,102893.91
2019-02-24T11:40:09.276Z,102887.23
2019-02-24T11:42:42.566Z,102893.79
2019-02-24T11:45:15.867Z,102891.31
2019-02-24T11:47:49.169Z,102889.61
2019-02-24T11:50:22.482Z,102880.04
2019-02-24T11:52:55.792Z,102876.35
2019-02-24T11:55:29.081Z,102871.58
2019-02-24T11:58:02.408Z,102869.88
2019-02-24T12:00:35.695Z,102871.66
2019-02-24T12:03:08.999Z,102863.00
2019-02-24T12:05:42.789Z,102865.89
2019-02-24T12:08:16.090Z,102859.93
2019-02-24T12:10:49.449Z,102858.73
2019-02-24T12:13:22.730Z,102857.55
2019-02-24T12:15:56.009Z,102850.09
2019-02-24T12:18:29.300Z,102842.70
2019-02-24T12:21:02.629Z,102844.08
2019-02-24T12:23:35.920Z,102839.03
2019-02-24T12:26:09.212Z,102844.28
2019-02-24T12:28:42.519Z,102834.43
2019-02-24T12:31:15.855Z,102836.73
2019-02-24T12:33:49.156Z,102834.47
2019-02-24T12:36:22.512Z,102834.40
2019-02-24T12:38:55.800Z,102829.86
2019-02-24T12:41:29.094Z,102827.81
2019-02-24T12:44:02.465Z,102826.59
2019-02-24T12:46:35.764Z,102826.80
2019-02-24T12:49:09.081Z,102816.36
2019-02-24T12:51:42.434Z,102816.95
2019-02-24T12:54:15.726Z,102814.00
2019-02-24T12:56:49.023Z,102813.65
2019-02-24T12:59:22.339Z,102813.83
2019-02-24T13:01:55.613Z,102796.55
2019-02-24T13:04:29.042Z,102803.74
2019-02-24T13:07:02.302Z,102784.59
2019-02-24T13:09:35.601Z,102792.87
2019-02-24T13:12:08.891Z,102793.22
2019-02-24T13:14:42.209Z,102783.98
2019-02-24T13:17:15.474Z,102803.06
2019-02-24T13:19:48.766Z,102784.14
2019-02-24T13:22:22.062Z,102788.05
2019-02-24T13:24:55.450Z,102788.19
2019-02-24T13:27:28.755Z,102788.94
2019-02-24T13:30:02.127Z,102795.34
2019-02-24T13:32:35.408Z,102786.31
2019-02-24T13:35:09.276Z,102786.31
2019-02-24T13:37:42.609Z,102781.70
2019-02-24T13:40:16.776Z,102779.98
2019-02-24T13:42:50.076Z,102775.06
2019-02-24T13:45:23.950Z,102774.23
2019-02-24T13:47:57.254Z,102779.91
2019-02-24T13:50:30.575Z,102773.92
2019-02-24T13:53:03.881Z,102778.98
2019-02-24T13:55:37.211Z,102777.61
2019-02-24T13:58:10.497Z,102775.36
2019-02-24T14:00:43.789Z,102780.25
2019-02-24T14:03:17.137Z,102777.61
2019-02-24T14:05:50.448Z,102771.97
2019-02-24T14:08:23.733Z,102773.05
2019-02-24T14:10:57.058Z,102776.53
2019-02-24T14:13:30.358Z,102766.97
2019-02-24T14:16:03.645Z,102764.80
2019-02-24T14:18:36.929Z,102762.24
2019-02-24T14:21:10.202Z,102761.73
2019-02-24T14:23:44.396Z,102762.20
2019-02-24T14:26:19.678Z,102763.20
2019-02-24T14:28:52.681Z,102765.91
2019-02-24T14:31:25.963Z,102759.81
2019-02-24T14:33:59.251Z,102753.61
2019-02-24T14:36:32.553Z,102762.35
2019-02-24T14:39:06.079Z,102748.73
2019-02-24T14:41:39.361Z,102741.77
2019-02-24T14:44:12.847Z,102739.59
2019-02-24T14:46:46.130Z,102739.59
2019-02-24T14:49:19.492Z,102738.70
2019-02-24T14:51:52.794Z,102734.81
2019-02-24T14:54:26.112Z,102724.25
2019-02-24T14:56:59.416Z,102726.86
2019-02-24T14:59:32.731Z,102726.41
2019-02-24T15:02:06.080Z,102722.02
2019-02-24T15:04:39.367Z,102725.94
2019-02-24T15:07:12.649Z,102718.48
2019-02-24T15:09:45.943Z,102716.33
2019-02-24T15:12:19.241Z,102716.36
2019-02-24T15:14:52.608Z,102721.64
2019-02-24T15:17:25.920Z,102715.95
2019-02-24T15:19:59.271Z,102722.03
2019-02-24T15:22:32.623Z,102724.78
2019-02-24T15:25:11.505Z,102724.30
2019-02-24T15:27:44.832Z,102721.28
2019-02-24T15:30:32.345Z,102719.02
2019-02-24T15:33:05.726Z,102724.34
2019-02-24T15:35:39.110Z,102719.63
2019-02-24T15:38:12.431Z,102725.64
2019-02-24T15:40:45.737Z,102720.03
2019-02-24T15:43:19.022Z,102727.44
2019-02-24T15:45:52.329Z,102730.08
2019-02-24T15:48:25.595Z,102735.69
2019-02-24T15:50:58.896Z,102733.51
2019-02-24T15:53:32.216Z,102737.04
2019-02-24T15:56:05.524Z,102733.02
2019-02-24T15:58:38.838Z,102733.02
2019-02-24T16:01:12.216Z,102731.67
2019-02-24T16:03:45.498Z,102740.94
2019-02-24T16:06:18.819Z,102730.39
2019-02-24T16:08:52.117Z,102736.55
2019-02-24T16:11:25.408Z,102732.63
2019-02-24T16:13:58.701Z,102737.78
2019-02-24T16:16:32.005Z,102731.02
2019-02-24T16:19:05.289Z,102736.25
2019-02-24T16:21:38.613Z,102737.92
2019-02-24T16:24:11.997Z,102729.51
2019-02-24T16:26:45.299Z,102729.37
2019-02-24T16:29:18.594Z,102730.13
2019-02-24T16:31:51.904Z,102731.03
2019-02-24T16:34:25.189Z,102731.39
2019-02-24T16:36:58.494Z,102740.55
2019-02-24T16:39:31.783Z,102739.46
2019-02-24T16:42:05.082Z,102747.36
2019-02-24T16:44:38.387Z,102757.59
2019-02-24T16:47:11.691Z,102757.84
2019-02-24T16:49:45.005Z,102755.14
2019-02-24T16:52:18.332Z,102762.08
2019-02-24T16:54:52.872Z,102757.36
2019-02-24T16:57:26.393Z,102760.05
2019-02-24T16:59:59.704Z,102755.63
2019-02-24T17:02:33.030Z,102751.26
2019-02-24T17:05:07.473Z,102749.81
2019-02-24T17:07:40.782Z,102764.83
2019-02-24T17:10:21.275Z,102762.18
2019-02-24T17:12:54.547Z,102761.05
2019-02-24T17:15:27.918Z,102764.16
2019-02-24T17:18:01.247Z,102768.13
2019-02-24T17:20:34.571Z,102766.16
2019-02-24T17:23:07.863Z,102760.42
2019-02-24T17:25:41.166Z,102765.33
2019-02-24T17:28:14.548Z,102761.23
2019-02-24T17:30:48.119Z,102765.22
2019-02-24T17:33:29.772Z,102767.77
2019-02-24T17:35:56.459Z,102768.31
2019-02-24T17:38:29.743Z,102780.13
2019-02-24T17:41:03.057Z,102775.22
2019-02-24T17:43:36.376Z,102779.77
2019-02-24T17:46:09.747Z,102784.58
2019-02-24T17:48:43.086Z,102799.48
2019-02-24T17:51:21.254Z,102802.55
2019-02-24T17:53:51.435Z,102806.05
2019-02-24T17:56:25.694Z,102798.69
2019-02-24T17:58:59.076Z,102804.12
2019-02-24T18:01:32.372Z,102813.16
2019-02-24T18:04:05.661Z,102814.95
2019-02-24T18:06:38.988Z,102816.82
2019-02-24T18:09:12.262Z,102821.27
2019-02-24T18:11:45.679Z,102826.12
2019-02-24T18:14:19.080Z,102826.41
2019-02-24T18:16:52.411Z,102831.09
2019-02-24T18:19:25.770Z,102838.40
2019-02-24T18:21:59.218Z,102831.50
2019-02-24T18:24:32.561Z,102835.34
2019-02-24T18:27:06.076Z,102830.34
2019-02-24T18:29:39.349Z,102832.69
2019-02-24T18:32:13.472Z,102828.38
2019-02-24T18:34:46.786Z,102831.66
2019-02-24T18:37:20.064Z,102825.91
2019-02-24T18:39:53.335Z,102822.19
2019-02-24T18:42:26.764Z,102835.68
2019-02-24T18:45:00.345Z,102829.53
2019-02-24T18:47:33.604Z,102830.19
2019-02-24T18:50:10.117Z,102843.94
2019-02-24T18:52:43.498Z,102847.40
2019-02-24T18:55:16.864Z,102836.52
2019-02-24T18:57:50.233Z,102840.51
2019-02-24T19:00:24.002Z,102837.34
2019-02-24T19:02:57.301Z,102837.25
2019-02-24T19:05:30.602Z,102833.72
2019-02-24T19:08:04.046Z,102837.93
2019-02-24T19:10:37.340Z,102839.80
2019-02-24T19:13:11.600Z,102833.97
2019-02-24T19:15:44.984Z,102839.02
2019-02-24T19:18:18.259Z,102829.03
2019-02-24T19:20:51.567Z,102826.11
2019-02-24T19:23:24.864Z,102829.94
2019-02-24T19:25:58.173Z,102834.78
2019-02-24T19:28:31.486Z,102830.36
2019-02-24T19:31:04.758Z,102825.46
2019-02-24T19:33:38.120Z,102828.97
2019-02-24T19:36:11.429Z,102830.41
2019-02-24T19:38:45.283Z,102828.47
2019-02-24T19:41:18.603Z,102833.35
2019-02-24T19:43:51.927Z,102823.75
2019-02-24T19:46:25.226Z,102825.80
2019-02-24T19:48:58.554Z,102832.93
2019-02-24T19:51:31.856Z,102829.03
2019-02-24T19:54:05.164Z,102819.78
2019-02-24T19:56:38.516Z,102813.08
2019-02-24T19:59:11.834Z,102817.61
2019-02-24T20:01:45.237Z,102825.14
2019-02-24T20:04:18.533Z,102818.91
2019-02-24T20:06:51.862Z,102819.67
2019-02-24T20:09:25.148Z,102829.36
2019-02-24T20:11:58.446Z,102827.59
2019-02-24T20:14:31.815Z,102830.00
2019-02-24T20:17:05.080Z,102827.59
2019-02-24T20:19:38.386Z,102829.63
2019-02-24T20:22:11.732Z,102834.48
2019-02-24T20:24:45.023Z,102843.75
2019-02-24T20:27:18.315Z,102847.16
2019-02-24T20:29:51.609Z,102850.20
2019-02-24T20:32:24.914Z,102853.65
2019-02-24T20:34:58.211Z,102853.59
2019-02-24T20:37:31.540Z,102861.82
2019-02-24T20:40:07.442Z,102865.71
2019-02-24T20:42:40.746Z,102872.77
2019-02-24T20:45:19.249Z,102880.67
2019-02-24T20:47:52.726Z,102881.10
2019-02-24T20:50:31.543Z,102875.75
2019-02-24T20:53:05.200Z,102879.27
2019-02-24T20:55:38.489Z,102875.38
2019-02-24T20:58:11.859Z,102887.80
2019-02-24T21:00:47.968Z,102896.33
2019-02-24T21:03:22.627Z,102905.06
2019-02-24T21:05:55.969Z,102902.60
2019-02-24T21:08:29.280Z,102902.00
2019-02-24T21:11:02.606Z,102900.45
2019-02-24T21:13:35.922Z,102905.41
2019-02-24T21:16:09.278Z,102912.34
2019-02-24T21:18:42.663Z,102909.56
2019-02-24T21:21:15.961Z,102897.77
2019-02-24T21:23:49.334Z,102906.39
2019-02-24T21:26:22.616Z,102903.72
2019-02-24T21:28:55.993Z,102903.45
2019-02-24T21:31:29.269Z,102912.63
2019-02-24T21:34:02.590Z,102902.16
2019-02-24T21:36:35.860Z,102906.19
2019-02-24T21:39:09.304Z,102898.81
2019-02-24T21:41:42.594Z,102894.95
2019-02-24T21:44:15.888Z,102901.00
2019-02-24T21:46:49.229Z,102901.97
2019-02-24T21:49:22.541Z,102905.53
2019-02-24T21:51:55.812Z,102902.84
2019-02-24T21:54:29.190Z,102907.66
2019-02-24T21:57:02.461Z,102906.27
2019-02-24T21:59:37.236Z,102908.20
2019-02-24T22:02:10.584Z,102907.66
2019-02-24T22:04:43.970Z,102906.12
2019-02-24T22:07:17.243Z,102900.17
2019-02-24T22:09:50.568Z,102905.01
2019-02-24T22:12:23.858Z,102901.22
2019-02-24T22:14:57.152Z,102902.11
2019-02-24T22:17:30.460Z,102896.48
2019-02-24T22:20:05.094Z,102903.02
2019-02-24T22:22:38.357Z,102905.34
2019-02-24T22:25:13.124Z,102903.75
2019-02-24T22:27:46.398Z,102907.84
2019-02-24T22:30:21.603Z,102912.86
2019-02-24T22:32:54.867Z,102924.40
2019-02-24T22:35:28.152Z,102923.30
2019-02-24T22:38:01.424Z,102925.83
2019-02-24T22:40:34.728Z,102920.66
2019-02-24T22:43:08.005Z,102922.75
2019-02-24T22:45:41.281Z,102930.20
2019-02-24T22:48:14.539Z,102924.28
2019-02-24T22:50:47.815Z,102928.17
2019-02-24T22:53:21.079Z,102931.17
2019-02-24T22:55:54.377Z,102928.69
2019-02-24T22:58:27.630Z,102928.53
2019-02-24T23:01:04.612Z,102926.59
2019-02-24T23:03:38.347Z,102926.09
2019-02-24T23:06:11.682Z,102924.69
2019-02-24T23:08:45.008Z,102926.73
2019-02-24T23:11:18.293Z,102922.67
2019-02-24T23:13:51.594Z,102920.48
2019-02-24T23:16:24.858Z,102922.53
2019-02-24T23:18:58.160Z,102917.16
2019-02-24T23:21:31.419Z,102920.47
2019-02-24T23:24:04.766Z,102906.04
2019-02-24T23:26:38.069Z,102914.12
2019-02-24T23:29:11.329Z,102911.20
2019-02-24T23:31:44.622Z,102902.59
2019-02-24T23:34:17.904Z,102913.59
2019-02-24T23:36:51.175Z,102910.95
2019-02-24T23:39:24.519Z,102919.70
2019-02-24T23:41:57.800Z,102922.86
2019-02-24T23:44:31.141Z,102923.69
2019-02-24T23:47:04.438Z,102918.91
2019-02-24T23:49:37.741Z,102916.25
2019-02-24T23:52:11.021Z,102923.70
2019-02-24T23:54:44.299Z,102922.06
2019-02-24T23:57:17.583Z,102927.47
2019-02-24T23:59:50.868Z,102922.95
